sensor_id;sensor_type;location;lat;lon;timestamp;P1;durP1;ratioP1;P2;durP2;ratioP2
31087;SDS011;17745;55.914;37.554;2022-11-20T00:03:11;16.30;;;11.25;;
31087;SDS011;17745;55.914;37.554;2022-11-20T00:06:23;21.52;;;11.85;;
31087;SDS011;17745;55.914;37.554;2022-11-20T00:09:27;15.00;;;9.98;;
31087;SDS011;17745;55.914;37.554;2022-11-20T00:12:54;19.85;;;10.10;;
31087;SDS011;17745;55.914;37.554;2022-11-20T00:15:59;18.58;;;11.23;;
31087;SDS011;17745;55.914;37.554;2022-11-20T00:18:36;17.75;;;11.48;;
31087;SDS011;17745;55.914;37.554;2022-11-20T00:21:55;14.43;;;9.93;;
31087;SDS011;17745;55.914;37.554;2022-11-20T00:25:24;21.50;;;11.02;;
31087;SDS011;17745;55.914;37.554;2022-11-20T00:30:54;14.50;;;10.13;;
31087;SDS011;17745;55.914;37.554;2022-11-20T00:33:36;15.20;;;10.60;;
31087;SDS011;17745;55.914;37.554;2022-11-20T00:36:15;18.58;;;10.85;;
31087;SDS011;17745;55.914;37.554;2022-11-20T00:38:54;17.80;;;11.75;;
31087;SDS011;17745;55.914;37.554;2022-11-20T00:41:38;19.85;;;10.70;;
31087;SDS011;17745;55.914;37.554;2022-11-20T00:44:44;18.55;;;11.07;;
31087;SDS011;17745;55.914;37.554;2022-11-20T00:50:38;22.98;;;11.10;;
31087;SDS011;17745;55.914;37.554;2022-11-20T00:53:42;18.40;;;10.60;;
31087;SDS011;17745;55.914;37.554;2022-11-20T00:56:32;16.10;;;10.40;;
31087;SDS011;17745;55.914;37.554;2022-11-20T01:00:08;19.52;;;10.75;;
31087;SDS011;17745;55.914;37.554;2022-11-20T01:40:52;15.13;;;8.77;;
31087;SDS011;17745;55.914;37.554;2022-11-20T01:43:53;16.42;;;9.20;;
31087;SDS011;17745;55.914;37.554;2022-11-20T01:46:40;17.87;;;9.48;;
31087;SDS011;17745;55.914;37.554;2022-11-20T01:49:50;18.87;;;9.75;;
31087;SDS011;17745;55.914;37.554;2022-11-20T01:53:02;15.25;;;9.32;;
31087;SDS011;17745;55.914;37.554;2022-11-20T01:56:15;19.48;;;10.13;;
31087;SDS011;17745;55.914;37.554;2022-11-20T01:59:07;16.20;;;9.63;;
31087;SDS011;17745;55.914;37.554;2022-11-20T02:01:59;14.45;;;9.45;;
31087;SDS011;17745;55.914;37.554;2022-11-20T02:04:38;14.73;;;9.50;;
31087;SDS011;17745;55.914;37.554;2022-11-20T02:07:08;16.60;;;10.10;;
31087;SDS011;17745;55.914;37.554;2022-11-20T02:09:44;15.93;;;9.10;;
31087;SDS011;17745;55.914;37.554;2022-11-20T02:12:21;17.95;;;9.68;;
31087;SDS011;17745;55.914;37.554;2022-11-20T02:15:28;15.52;;;9.82;;
31087;SDS011;17745;55.914;37.554;2022-11-20T02:17:58;16.58;;;10.20;;
31087;SDS011;17745;55.914;37.554;2022-11-20T02:20:29;15.07;;;9.43;;
31087;SDS011;17745;55.914;37.554;2022-11-20T02:22:57;16.48;;;9.45;;
31087;SDS011;17745;55.914;37.554;2022-11-20T02:25:41;15.95;;;9.90;;
31087;SDS011;17745;55.914;37.554;2022-11-20T02:28:12;16.15;;;9.35;;
31087;SDS011;17745;55.914;37.554;2022-11-20T02:30:42;18.27;;;9.32;;
31087;SDS011;17745;55.914;37.554;2022-11-20T02:33:12;14.43;;;9.35;;
31087;SDS011;17745;55.914;37.554;2022-11-20T02:35:42;16.92;;;10.20;;
31087;SDS011;17745;55.914;37.554;2022-11-20T02:38:12;17.52;;;8.98;;
31087;SDS011;17745;55.914;37.554;2022-11-20T02:40:46;15.88;;;9.55;;
31087;SDS011;17745;55.914;37.554;2022-11-20T02:46:45;17.17;;;10.80;;
31087;SDS011;17745;55.914;37.554;2022-11-20T02:49:20;16.85;;;9.70;;
31087;SDS011;17745;55.914;37.554;2022-11-20T02:52:02;14.75;;;9.32;;
31087;SDS011;17745;55.914;37.554;2022-11-20T02:55:04;15.70;;;9.32;;
31087;SDS011;17745;55.914;37.554;2022-11-20T02:58:15;14.10;;;8.88;;
31087;SDS011;17745;55.914;37.554;2022-11-20T03:08:44;14.45;;;9.20;;
31087;SDS011;17745;55.914;37.554;2022-11-20T04:18:56;19.17;;;10.50;;
31087;SDS011;17745;55.914;37.554;2022-11-20T04:21:58;16.92;;;10.00;;
31087;SDS011;17745;55.914;37.554;2022-11-20T04:24:47;18.08;;;10.45;;
31087;SDS011;17745;55.914;37.554;2022-11-20T04:27:25;19.17;;;11.02;;
31087;SDS011;17745;55.914;37.554;2022-11-20T04:30:03;18.80;;;10.88;;
31087;SDS011;17745;55.914;37.554;2022-11-20T04:32:46;14.10;;;10.07;;
31087;SDS011;17745;55.914;37.554;2022-11-20T04:35:33;17.70;;;11.85;;
31087;SDS011;17745;55.914;37.554;2022-11-20T04:38:10;19.12;;;11.98;;
31087;SDS011;17745;55.914;37.554;2022-11-20T04:40:41;16.75;;;10.02;;
31087;SDS011;17745;55.914;37.554;2022-11-20T04:43:13;16.25;;;10.43;;
31087;SDS011;17745;55.914;37.554;2022-11-20T04:45:50;15.93;;;10.95;;
31087;SDS011;17745;55.914;37.554;2022-11-20T04:48:32;18.48;;;11.48;;
31087;SDS011;17745;55.914;37.554;2022-11-20T05:22:59;19.02;;;10.70;;
31087;SDS011;17745;55.914;37.554;2022-11-20T05:26:38;18.85;;;11.57;;
31087;SDS011;17745;55.914;37.554;2022-11-20T05:29:15;18.20;;;11.77;;
31087;SDS011;17745;55.914;37.554;2022-11-20T05:31:47;22.65;;;13.20;;
31087;SDS011;17745;55.914;37.554;2022-11-20T05:34:43;17.45;;;11.50;;
31087;SDS011;17745;55.914;37.554;2022-11-20T05:37:15;24.10;;;12.40;;
31087;SDS011;17745;55.914;37.554;2022-11-20T05:39:56;20.23;;;13.15;;
31087;SDS011;17745;55.914;37.554;2022-11-20T05:42:56;20.37;;;13.70;;
31087;SDS011;17745;55.914;37.554;2022-11-20T05:45:53;19.08;;;11.77;;
31087;SDS011;17745;55.914;37.554;2022-11-20T06:35:51;20.12;;;11.82;;
31087;SDS011;17745;55.914;37.554;2022-11-20T06:39:25;18.85;;;11.35;;
31087;SDS011;17745;55.914;37.554;2022-11-20T06:42:32;22.15;;;12.65;;
31087;SDS011;17745;55.914;37.554;2022-11-20T06:45:56;20.12;;;12.68;;
31087;SDS011;17745;55.914;37.554;2022-11-20T07:11:14;20.37;;;12.35;;
31087;SDS011;17745;55.914;37.554;2022-11-20T07:13:56;20.33;;;12.47;;
31087;SDS011;17745;55.914;37.554;2022-11-20T07:16:37;18.90;;;11.90;;
31087;SDS011;17745;55.914;37.554;2022-11-20T07:19:07;23.05;;;13.48;;
31087;SDS011;17745;55.914;37.554;2022-11-20T07:21:37;19.73;;;12.45;;
31087;SDS011;17745;55.914;37.554;2022-11-20T07:24:06;23.52;;;12.48;;
31087;SDS011;17745;55.914;37.554;2022-11-20T07:26:48;22.65;;;12.70;;
31087;SDS011;17745;55.914;37.554;2022-11-20T07:29:41;19.10;;;12.45;;
31087;SDS011;17745;55.914;37.554;2022-11-20T07:32:15;20.92;;;13.48;;
31087;SDS011;17745;55.914;37.554;2022-11-20T07:37:50;19.85;;;13.05;;
31087;SDS011;17745;55.914;37.554;2022-11-20T07:40:25;18.20;;;12.43;;
31087;SDS011;17745;55.914;37.554;2022-11-20T07:43:08;21.42;;;12.75;;
31087;SDS011;17745;55.914;37.554;2022-11-20T07:45:38;21.70;;;13.32;;
31087;SDS011;17745;55.914;37.554;2022-11-20T07:48:17;23.75;;;13.90;;
31087;SDS011;17745;55.914;37.554;2022-11-20T07:50:48;24.27;;;13.80;;
31087;SDS011;17745;55.914;37.554;2022-11-20T07:53:22;24.23;;;14.20;;
31087;SDS011;17745;55.914;37.554;2022-11-20T07:56:17;22.80;;;14.35;;
31087;SDS011;17745;55.914;37.554;2022-11-20T07:58:54;21.17;;;13.82;;
31087;SDS011;17745;55.914;37.554;2022-11-20T08:01:33;22.98;;;14.13;;
31087;SDS011;17745;55.914;37.554;2022-11-20T08:04:05;21.75;;;13.60;;
31087;SDS011;17745;55.914;37.554;2022-11-20T08:06:39;22.85;;;13.73;;
31087;SDS011;17745;55.914;37.554;2022-11-20T08:09:25;21.20;;;13.25;;
31087;SDS011;17745;55.914;37.554;2022-11-20T08:11:59;22.67;;;14.43;;
31087;SDS011;17745;55.914;37.554;2022-11-20T08:18:13;21.77;;;13.70;;
31087;SDS011;17745;55.914;37.554;2022-11-20T08:21:36;22.58;;;13.75;;
31087;SDS011;17745;55.914;37.554;2022-11-20T08:24:39;24.10;;;13.62;;
31087;SDS011;17745;55.914;37.554;2022-11-20T08:27:44;24.43;;;13.87;;
31087;SDS011;17745;55.914;37.554;2022-11-20T08:30:43;21.25;;;14.25;;
31087;SDS011;17745;55.914;37.554;2022-11-20T08:33:20;23.50;;;14.13;;
31087;SDS011;17745;55.914;37.554;2022-11-20T08:36:01;21.90;;;14.55;;
31087;SDS011;17745;55.914;37.554;2022-11-20T08:38:32;23.62;;;14.15;;
31087;SDS011;17745;55.914;37.554;2022-11-20T08:41:20;24.17;;;14.52;;
31087;SDS011;17745;55.914;37.554;2022-11-20T08:44:19;22.90;;;14.00;;
31087;SDS011;17745;55.914;37.554;2022-11-20T08:47:07;22.58;;;15.05;;
31087;SDS011;17745;55.914;37.554;2022-11-20T08:50:09;24.85;;;14.82;;
31087;SDS011;17745;55.914;37.554;2022-11-20T08:53:01;25.45;;;14.65;;
31087;SDS011;17745;55.914;37.554;2022-11-20T08:55:47;27.02;;;13.70;;
31087;SDS011;17745;55.914;37.554;2022-11-20T08:58:25;20.35;;;13.13;;
31087;SDS011;17745;55.914;37.554;2022-11-20T09:01:07;23.70;;;15.18;;
31087;SDS011;17745;55.914;37.554;2022-11-20T09:03:47;26.62;;;14.68;;
31087;SDS011;17745;55.914;37.554;2022-11-20T09:06:50;23.60;;;13.82;;
31087;SDS011;17745;55.914;37.554;2022-11-20T09:09:34;22.95;;;14.18;;
31087;SDS011;17745;55.914;37.554;2022-11-20T09:12:29;21.20;;;14.15;;
31087;SDS011;17745;55.914;37.554;2022-11-20T09:15:00;23.58;;;15.10;;
31087;SDS011;17745;55.914;37.554;2022-11-20T09:17:34;21.17;;;14.25;;
31087;SDS011;17745;55.914;37.554;2022-11-20T09:20:17;23.40;;;15.15;;
31087;SDS011;17745;55.914;37.554;2022-11-20T09:23:16;23.83;;;14.75;;
31087;SDS011;17745;55.914;37.554;2022-11-20T09:26:05;26.70;;;14.52;;
31087;SDS011;17745;55.914;37.554;2022-11-20T09:31:37;27.20;;;15.90;;
31087;SDS011;17745;55.914;37.554;2022-11-20T09:34:19;26.92;;;15.52;;
31087;SDS011;17745;55.914;37.554;2022-11-20T09:41:23;30.77;;;16.00;;
31087;SDS011;17745;55.914;37.554;2022-11-20T09:44:07;25.00;;;14.38;;
31087;SDS011;17745;55.914;37.554;2022-11-20T09:46:49;30.08;;;15.13;;
31087;SDS011;17745;55.914;37.554;2022-11-20T09:49:26;25.10;;;15.80;;
31087;SDS011;17745;55.914;37.554;2022-11-20T09:52:12;27.42;;;15.45;;
31087;SDS011;17745;55.914;37.554;2022-11-20T09:54:49;38.30;;;17.75;;
31087;SDS011;17745;55.914;37.554;2022-11-20T09:57:21;28.17;;;17.02;;
31087;SDS011;17745;55.914;37.554;2022-11-20T09:59:55;33.85;;;16.70;;
31087;SDS011;17745;55.914;37.554;2022-11-20T10:02:28;34.67;;;17.05;;
31087;SDS011;17745;55.914;37.554;2022-11-20T10:05:02;36.40;;;17.17;;
31087;SDS011;17745;55.914;37.554;2022-11-20T10:07:37;31.12;;;16.60;;
31087;SDS011;17745;55.914;37.554;2022-11-20T10:10:16;32.83;;;16.35;;
31087;SDS011;17745;55.914;37.554;2022-11-20T10:12:56;28.20;;;16.23;;
31087;SDS011;17745;55.914;37.554;2022-11-20T10:15:45;27.23;;;15.73;;
31087;SDS011;17745;55.914;37.554;2022-11-20T10:18:40;28.17;;;15.73;;
31087;SDS011;17745;55.914;37.554;2022-11-20T10:24:55;30.98;;;16.62;;
31087;SDS011;17745;55.914;37.554;2022-11-20T10:27:59;33.33;;;16.77;;
31087;SDS011;17745;55.914;37.554;2022-11-20T10:31:23;34.83;;;19.27;;
31087;SDS011;17745;55.914;37.554;2022-11-20T10:34:04;34.30;;;18.45;;
31087;SDS011;17745;55.914;37.554;2022-11-20T10:36:38;31.60;;;17.98;;
31087;SDS011;17745;55.914;37.554;2022-11-20T10:39:16;31.65;;;16.30;;
31087;SDS011;17745;55.914;37.554;2022-11-20T10:41:52;31.95;;;17.00;;
31087;SDS011;17745;55.914;37.554;2022-11-20T10:44:26;26.98;;;16.50;;
31087;SDS011;17745;55.914;37.554;2022-11-20T10:47:13;26.12;;;15.73;;
31087;SDS011;17745;55.914;37.554;2022-11-20T10:49:44;27.02;;;16.80;;
31087;SDS011;17745;55.914;37.554;2022-11-20T10:52:17;29.98;;;17.12;;
31087;SDS011;17745;55.914;37.554;2022-11-20T10:54:58;29.70;;;17.00;;
31087;SDS011;17745;55.914;37.554;2022-11-20T10:57:42;38.38;;;17.45;;
31087;SDS011;17745;55.914;37.554;2022-11-20T11:00:22;33.22;;;16.62;;
31087;SDS011;17745;55.914;37.554;2022-11-20T11:02:52;32.00;;;16.83;;
31087;SDS011;17745;55.914;37.554;2022-11-20T11:05:32;32.30;;;18.43;;
31087;SDS011;17745;55.914;37.554;2022-11-20T11:08:04;36.80;;;18.52;;
31087;SDS011;17745;55.914;37.554;2022-11-20T11:10:42;33.10;;;18.15;;
31087;SDS011;17745;55.914;37.554;2022-11-20T11:13:29;34.85;;;18.40;;
31087;SDS011;17745;55.914;37.554;2022-11-20T11:15:59;38.35;;;20.35;;
31087;SDS011;17745;55.914;37.554;2022-11-20T11:18:28;35.80;;;18.90;;
31087;SDS011;17745;55.914;37.554;2022-11-20T11:20:59;38.95;;;20.92;;
31087;SDS011;17745;55.914;37.554;2022-11-20T11:23:32;35.85;;;19.65;;
31087;SDS011;17745;55.914;37.554;2022-11-20T11:26:02;43.83;;;22.70;;
31087;SDS011;17745;55.914;37.554;2022-11-20T11:28:33;50.33;;;22.45;;
31087;SDS011;17745;55.914;37.554;2022-11-20T11:31:02;44.08;;;21.65;;
31087;SDS011;17745;55.914;37.554;2022-11-20T11:33:31;36.70;;;20.20;;
31087;SDS011;17745;55.914;37.554;2022-11-20T11:36:01;34.13;;;16.60;;
31087;SDS011;17745;55.914;37.554;2022-11-20T11:38:34;27.17;;;16.05;;
31087;SDS011;17745;55.914;37.554;2022-11-20T11:41:05;34.17;;;15.85;;
31087;SDS011;17745;55.914;37.554;2022-11-20T11:44:26;53.87;;;22.58;;
31087;SDS011;17745;55.914;37.554;2022-11-20T11:47:32;46.50;;;20.92;;
31087;SDS011;17745;55.914;37.554;2022-11-20T11:50:17;37.78;;;20.60;;
31087;SDS011;17745;55.914;37.554;2022-11-20T11:52:51;27.73;;;14.65;;
31087;SDS011;17745;55.914;37.554;2022-11-20T11:55:28;34.17;;;18.27;;
31087;SDS011;17745;55.914;37.554;2022-11-20T11:58:04;32.67;;;18.00;;
31087;SDS011;17745;55.914;37.554;2022-11-20T12:00:51;34.10;;;19.10;;
31087;SDS011;17745;55.914;37.554;2022-11-20T12:03:55;16.42;;;8.63;;
31087;SDS011;17745;55.914;37.554;2022-11-20T12:07:01;29.02;;;15.60;;
31087;SDS011;17745;55.914;37.554;2022-11-20T12:09:41;31.17;;;16.08;;
31087;SDS011;17745;55.914;37.554;2022-11-20T12:12:18;17.92;;;8.75;;
31087;SDS011;17745;55.914;37.554;2022-11-20T12:14:56;33.63;;;15.55;;
31087;SDS011;17745;55.914;37.554;2022-11-20T12:17:50;26.87;;;15.30;;
31087;SDS011;17745;55.914;37.554;2022-11-20T12:20:38;26.65;;;15.05;;
31087;SDS011;17745;55.914;37.554;2022-11-20T12:23:14;22.30;;;13.75;;
31087;SDS011;17745;55.914;37.554;2022-11-20T12:25:56;24.73;;;13.88;;
31087;SDS011;17745;55.914;37.554;2022-11-20T12:28:38;18.25;;;9.73;;
31087;SDS011;17745;55.914;37.554;2022-11-20T12:31:49;24.08;;;14.27;;
31087;SDS011;17745;55.914;37.554;2022-11-20T12:34:40;10.75;;;6.75;;
31087;SDS011;17745;55.914;37.554;2022-11-20T12:37:27;21.52;;;13.38;;
31087;SDS011;17745;55.914;37.554;2022-11-20T12:40:20;21.83;;;13.48;;
31087;SDS011;17745;55.914;37.554;2022-11-20T12:42:59;17.33;;;10.57;;
31087;SDS011;17745;55.914;37.554;2022-11-20T12:45:59;14.60;;;9.05;;
31087;SDS011;17745;55.914;37.554;2022-11-20T12:48:58;23.15;;;15.00;;
31087;SDS011;17745;55.914;37.554;2022-11-20T12:51:48;23.75;;;14.15;;
31087;SDS011;17745;55.914;37.554;2022-11-20T12:57:45;20.55;;;10.88;;
31087;SDS011;17745;55.914;37.554;2022-11-20T13:00:24;23.62;;;12.77;;
31087;SDS011;17745;55.914;37.554;2022-11-20T13:03:13;19.75;;;13.15;;
31087;SDS011;17745;55.914;37.554;2022-11-20T13:06:05;24.85;;;13.20;;
31087;SDS011;17745;55.914;37.554;2022-11-20T13:09:07;22.85;;;12.95;;
31087;SDS011;17745;55.914;37.554;2022-11-20T13:12:01;18.73;;;10.10;;
31087;SDS011;17745;55.914;37.554;2022-11-20T13:14:40;12.82;;;8.98;;
31087;SDS011;17745;55.914;37.554;2022-11-20T13:17:29;21.42;;;12.88;;
31087;SDS011;17745;55.914;37.554;2022-11-20T13:20:58;20.92;;;14.25;;
31087;SDS011;17745;55.914;37.554;2022-11-20T13:24:28;22.35;;;13.40;;
31087;SDS011;17745;55.914;37.554;2022-11-20T13:28:05;23.92;;;12.68;;
31087;SDS011;17745;55.914;37.554;2022-11-20T13:31:25;22.40;;;13.82;;
31087;SDS011;17745;55.914;37.554;2022-11-20T13:34:28;23.90;;;14.85;;
31087;SDS011;17745;55.914;37.554;2022-11-20T13:37:23;19.67;;;12.30;;
31087;SDS011;17745;55.914;37.554;2022-11-20T13:44:24;24.00;;;11.85;;
31087;SDS011;17745;55.914;37.554;2022-11-20T13:51:45;27.25;;;13.73;;
31087;SDS011;17745;55.914;37.554;2022-11-20T14:01:14;17.10;;;10.73;;
31087;SDS011;17745;55.914;37.554;2022-11-20T14:03:59;9.32;;;6.55;;
31087;SDS011;17745;55.914;37.554;2022-11-20T14:06:53;22.35;;;10.82;;
31087;SDS011;17745;55.914;37.554;2022-11-20T14:09:37;21.77;;;12.93;;
31087;SDS011;17745;55.914;37.554;2022-11-20T14:12:30;21.52;;;12.45;;
31087;SDS011;17745;55.914;37.554;2022-11-20T14:15:23;19.05;;;11.80;;
31087;SDS011;17745;55.914;37.554;2022-11-20T14:18:19;20.02;;;12.07;;
31087;SDS011;17745;55.914;37.554;2022-11-20T14:20:56;11.45;;;7.25;;
31087;SDS011;17745;55.914;37.554;2022-11-20T14:23:38;19.45;;;13.13;;
31087;SDS011;17745;55.914;37.554;2022-11-20T14:26:11;20.33;;;12.70;;
31087;SDS011;17745;55.914;37.554;2022-11-20T14:33:03;21.60;;;12.90;;
31087;SDS011;17745;55.914;37.554;2022-11-20T14:54:27;19.73;;;12.88;;
31087;SDS011;17745;55.914;37.554;2022-11-20T14:57:54;12.75;;;7.35;;
31087;SDS011;17745;55.914;37.554;2022-11-20T15:01:11;18.27;;;8.85;;
31087;SDS011;17745;55.914;37.554;2022-11-20T15:11:55;18.90;;;10.60;;
31087;SDS011;17745;55.914;37.554;2022-11-20T15:23:37;17.75;;;10.80;;
31087;SDS011;17745;55.914;37.554;2022-11-20T15:26:33;19.48;;;11.43;;
31087;SDS011;17745;55.914;37.554;2022-11-20T15:29:14;13.38;;;8.73;;
31087;SDS011;17745;55.914;37.554;2022-11-20T15:31:45;19.37;;;10.18;;
31087;SDS011;17745;55.914;37.554;2022-11-20T15:34:15;13.32;;;8.85;;
31087;SDS011;17745;55.914;37.554;2022-11-20T15:36:47;17.95;;;10.65;;
31087;SDS011;17745;55.914;37.554;2022-11-20T15:39:33;17.48;;;10.02;;
31087;SDS011;17745;55.914;37.554;2022-11-20T15:42:02;15.43;;;8.10;;
31087;SDS011;17745;55.914;37.554;2022-11-20T15:44:31;19.25;;;11.55;;
31087;SDS011;17745;55.914;37.554;2022-11-20T15:47:16;27.58;;;14.30;;
31087;SDS011;17745;55.914;37.554;2022-11-20T15:50:05;19.00;;;12.43;;
31087;SDS011;17745;55.914;37.554;2022-11-20T15:52:47;22.95;;;14.18;;
31087;SDS011;17745;55.914;37.554;2022-11-20T15:55:36;23.00;;;14.50;;
31087;SDS011;17745;55.914;37.554;2022-11-20T15:58:05;23.92;;;12.73;;
31087;SDS011;17745;55.914;37.554;2022-11-20T16:00:59;21.77;;;11.25;;
31087;SDS011;17745;55.914;37.554;2022-11-20T16:03:39;22.90;;;13.73;;
31087;SDS011;17745;55.914;37.554;2022-11-20T16:06:16;29.48;;;15.90;;
31087;SDS011;17745;55.914;37.554;2022-11-20T16:08:50;27.70;;;16.58;;
31087;SDS011;17745;55.914;37.554;2022-11-20T16:12:04;28.10;;;15.88;;
31087;SDS011;17745;55.914;37.554;2022-11-20T16:15:42;34.22;;;17.27;;
31087;SDS011;17745;55.914;37.554;2022-11-20T16:18:44;33.88;;;18.90;;
31087;SDS011;17745;55.914;37.554;2022-11-20T16:22:10;33.80;;;18.52;;
31087;SDS011;17745;55.914;37.554;2022-11-20T16:25:49;47.62;;;19.35;;
31087;SDS011;17745;55.914;37.554;2022-11-20T16:28:31;32.15;;;17.23;;
31087;SDS011;17745;55.914;37.554;2022-11-20T16:31:10;43.47;;;19.62;;
31087;SDS011;17745;55.914;37.554;2022-11-20T16:33:48;37.30;;;18.77;;
31087;SDS011;17745;55.914;37.554;2022-11-20T16:36:21;34.45;;;15.45;;
31087;SDS011;17745;55.914;37.554;2022-11-20T16:39:00;34.05;;;18.92;;
31087;SDS011;17745;55.914;37.554;2022-11-20T16:42:10;33.03;;;16.45;;
31087;SDS011;17745;55.914;37.554;2022-11-20T16:52:36;35.47;;;17.12;;
31087;SDS011;17745;55.914;37.554;2022-11-20T16:59:19;29.48;;;15.80;;
31087;SDS011;17745;55.914;37.554;2022-11-20T17:02:27;28.52;;;15.75;;
31087;SDS011;17745;55.914;37.554;2022-11-20T17:05:13;30.40;;;15.95;;
31087;SDS011;17745;55.914;37.554;2022-11-20T17:08:29;23.67;;;14.18;;
31087;SDS011;17745;55.914;37.554;2022-11-20T17:14:40;29.75;;;15.07;;
31087;SDS011;17745;55.914;37.554;2022-11-20T17:18:05;24.67;;;13.90;;
31087;SDS011;17745;55.914;37.554;2022-11-20T17:21:45;25.95;;;14.27;;
31087;SDS011;17745;55.914;37.554;2022-11-20T17:28:51;15.25;;;9.85;;
31087;SDS011;17745;55.914;37.554;2022-11-20T17:31:42;12.20;;;7.20;;
31087;SDS011;17745;55.914;37.554;2022-11-20T17:35:12;16.87;;;10.35;;
31087;SDS011;17745;55.914;37.554;2022-11-20T17:38:14;14.35;;;8.88;;
31087;SDS011;17745;55.914;37.554;2022-11-20T17:41:10;13.02;;;7.82;;
31087;SDS011;17745;55.914;37.554;2022-11-20T17:51:34;12.48;;;6.97;;
31087;SDS011;17745;55.914;37.554;2022-11-20T18:12:25;23.90;;;11.57;;
31087;SDS011;17745;55.914;37.554;2022-11-20T18:14:58;31.40;;;14.10;;
31087;SDS011;17745;55.914;37.554;2022-11-20T18:17:37;25.25;;;12.10;;
31087;SDS011;17745;55.914;37.554;2022-11-20T18:20:34;19.05;;;10.63;;
31087;SDS011;17745;55.914;37.554;2022-11-20T18:23:31;14.35;;;9.23;;
31087;SDS011;17745;55.914;37.554;2022-11-20T18:26:04;24.23;;;12.15;;
31087;SDS011;17745;55.914;37.554;2022-11-20T18:28:54;30.15;;;14.20;;
31087;SDS011;17745;55.914;37.554;2022-11-20T18:31:24;26.40;;;12.10;;
31087;SDS011;17745;55.914;37.554;2022-11-20T18:34:45;22.62;;;14.93;;
31087;SDS011;17745;55.914;37.554;2022-11-20T18:36:59;22.42;;;13.73;;
31087;SDS011;17745;55.914;37.554;2022-11-20T18:39:36;22.45;;;12.37;;
31087;SDS011;17745;55.914;37.554;2022-11-20T18:42:22;23.52;;;14.55;;
31087;SDS011;17745;55.914;37.554;2022-11-20T18:45:15;15.85;;;10.73;;
31087;SDS011;17745;55.914;37.554;2022-11-20T18:47:52;22.58;;;10.82;;
31087;SDS011;17745;55.914;37.554;2022-11-20T18:50:31;18.87;;;12.30;;
31087;SDS011;17745;55.914;37.554;2022-11-20T18:53:17;27.95;;;13.57;;
31087;SDS011;17745;55.914;37.554;2022-11-20T18:55:45;19.98;;;11.68;;
31087;SDS011;17745;55.914;37.554;2022-11-20T18:58:17;25.45;;;14.85;;
31087;SDS011;17745;55.914;37.554;2022-11-20T19:17:57;25.62;;;13.95;;
31087;SDS011;17745;55.914;37.554;2022-11-20T19:21:04;27.23;;;13.32;;
31087;SDS011;17745;55.914;37.554;2022-11-20T19:24:21;34.15;;;14.60;;
31087;SDS011;17745;55.914;37.554;2022-11-20T19:27:48;36.42;;;16.75;;
31087;SDS011;17745;55.914;37.554;2022-11-20T19:30:22;26.23;;;11.98;;
31087;SDS011;17745;55.914;37.554;2022-11-20T20:48:52;29.30;;;16.92;;
31087;SDS011;17745;55.914;37.554;2022-11-20T20:51:50;26.80;;;15.48;;
31087;SDS011;17745;55.914;37.554;2022-11-20T20:57:22;26.33;;;15.13;;
31087;SDS011;17745;55.914;37.554;2022-11-20T21:00:12;28.30;;;15.60;;
31087;SDS011;17745;55.914;37.554;2022-11-20T21:03:07;29.67;;;15.45;;
31087;SDS011;17745;55.914;37.554;2022-11-20T21:05:53;31.15;;;16.02;;
31087;SDS011;17745;55.914;37.554;2022-11-20T21:08:29;30.67;;;16.42;;
31087;SDS011;17745;55.914;37.554;2022-11-20T21:11:09;29.08;;;15.52;;
31087;SDS011;17745;55.914;37.554;2022-11-20T21:14:05;32.35;;;15.32;;
31087;SDS011;17745;55.914;37.554;2022-11-20T21:16:46;24.83;;;12.60;;
31087;SDS011;17745;55.914;37.554;2022-11-20T21:19:41;26.62;;;14.77;;
31087;SDS011;17745;55.914;37.554;2022-11-20T21:25:48;25.48;;;13.77;;
31087;SDS011;17745;55.914;37.554;2022-11-20T21:28:40;23.75;;;14.27;;
31087;SDS011;17745;55.914;37.554;2022-11-20T21:31:16;26.55;;;14.95;;
31087;SDS011;17745;55.914;37.554;2022-11-20T21:33:59;26.85;;;15.27;;
31087;SDS011;17745;55.914;37.554;2022-11-20T21:36:30;32.38;;;15.98;;
31087;SDS011;17745;55.914;37.554;2022-11-20T21:39:20;28.92;;;14.52;;
31087;SDS011;17745;55.914;37.554;2022-11-20T21:41:59;25.77;;;14.38;;
31087;SDS011;17745;55.914;37.554;2022-11-20T21:44:35;27.70;;;14.48;;
31087;SDS011;17745;55.914;37.554;2022-11-20T21:47:11;26.92;;;14.30;;
31087;SDS011;17745;55.914;37.554;2022-11-20T21:49:50;27.42;;;15.15;;
31087;SDS011;17745;55.914;37.554;2022-11-20T21:59:25;28.58;;;14.77;;
31087;SDS011;17745;55.914;37.554;2022-11-20T22:02:12;26.35;;;12.98;;
31087;SDS011;17745;55.914;37.554;2022-11-20T22:04:49;23.55;;;14.82;;
31087;SDS011;17745;55.914;37.554;2022-11-20T22:07:30;28.00;;;14.98;;
31087;SDS011;17745;55.914;37.554;2022-11-20T22:10:25;27.33;;;14.57;;
31087;SDS011;17745;55.914;37.554;2022-11-20T22:13:14;26.27;;;14.52;;
31087;SDS011;17745;55.914;37.554;2022-11-20T22:16:31;27.05;;;14.93;;
31087;SDS011;17745;55.914;37.554;2022-11-20T22:19:20;24.87;;;13.25;;
31087;SDS011;17745;55.914;37.554;2022-11-20T22:21:56;30.45;;;14.45;;
31087;SDS011;17745;55.914;37.554;2022-11-20T22:24:31;25.58;;;15.30;;
31087;SDS011;17745;55.914;37.554;2022-11-20T22:27:04;24.50;;;13.25;;
31087;SDS011;17745;55.914;37.554;2022-11-20T22:29:39;24.65;;;13.57;;
31087;SDS011;17745;55.914;37.554;2022-11-20T22:34:48;25.73;;;13.93;;
31087;SDS011;17745;55.914;37.554;2022-11-20T22:37:36;21.20;;;13.07;;
31087;SDS011;17745;55.914;37.554;2022-11-20T22:40:20;26.20;;;13.48;;
31087;SDS011;17745;55.914;37.554;2022-11-20T22:43:10;25.37;;;13.45;;
31087;SDS011;17745;55.914;37.554;2022-11-20T22:45:42;28.60;;;14.87;;
31087;SDS011;17745;55.914;37.554;2022-11-20T22:48:23;25.30;;;12.73;;
31087;SDS011;17745;55.914;37.554;2022-11-20T22:51:10;23.27;;;13.60;;
31087;SDS011;17745;55.914;37.554;2022-11-20T22:53:52;23.98;;;13.30;;
31087;SDS011;17745;55.914;37.554;2022-11-20T22:56:46;23.25;;;13.73;;
31087;SDS011;17745;55.914;37.554;2022-11-20T22:59:34;21.40;;;12.63;;
31087;SDS011;17745;55.914;37.554;2022-11-20T23:02:03;24.73;;;13.90;;
31087;SDS011;17745;55.914;37.554;2022-11-20T23:04:34;23.30;;;12.95;;
31087;SDS011;17745;55.914;37.554;2022-11-20T23:07:04;22.55;;;12.65;;
31087;SDS011;17745;55.914;37.554;2022-11-20T23:09:36;27.58;;;14.02;;
31087;SDS011;17745;55.914;37.554;2022-11-20T23:12:07;26.17;;;14.45;;
31087;SDS011;17745;55.914;37.554;2022-11-20T23:14:40;24.70;;;13.80;;
31087;SDS011;17745;55.914;37.554;2022-11-20T23:17:38;27.25;;;14.23;;
31087;SDS011;17745;55.914;37.554;2022-11-20T23:30:45;25.75;;;14.48;;
31087;SDS011;17745;55.914;37.554;2022-11-20T23:33:44;21.02;;;11.35;;
31087;SDS011;17745;55.914;37.554;2022-11-20T23:36:33;23.83;;;13.15;;
31087;SDS011;17745;55.914;37.554;2022-11-20T23:39:23;22.73;;;13.45;;
31087;SDS011;17745;55.914;37.554;2022-11-20T23:42:01;26.85;;;14.82;;
31087;SDS011;17745;55.914;37.554;2022-11-20T23:45:05;27.65;;;13.20;;
31087;SDS011;17745;55.914;37.554;2022-11-20T23:58:36;27.15;;;14.18;;
